Time;durP1;ratioP1;P1;durP2;ratioP2;P2;SDS_P1;SDS_P2;PMS_P1;PMS_P2;Temp;Humidity;BMP_temperature;BMP_pressure;BME280_temperature;BME280_humidity;BME280_pressure;Samples;Min_cycle;Max_cycle;Signal;HPM_P1;HPM_P2
2023/03/08 00:00:11;;;;;;;;;24.75;21.25;;;;;-147.17;100.00;-15917.19;5099179;27;52366;-51
2023/03/08 00:02:36;;;;;;;;;26.00;25.00;;;;;-147.17;100.00;-15917.19;5099581;27;52978;-50
2023/03/08 00:05:02;;;;;;;;;22.00;20.75;;;;;-147.17;100.00;-15917.19;5083335;27;51378;-50
2023/03/08 00:07:28;;;;;;;;;20.25;18.50;;;;;-147.17;100.00;-15917.19;5098944;27;51101;-50
2023/03/08 00:09:53;;;;;;;;;21.75;19.00;;;;;-147.17;100.00;-15917.19;5081753;27;52007;-50
2023/03/08 00:12:19;;;;;;;;;21.75;19.75;;;;;-147.17;100.00;-15917.19;5101664;27;51929;-48
2023/03/08 00:14:44;;;;;;;;;23.75;22.25;;;;;-147.17;100.00;-15917.19;5098442;27;51065;-52
2023/03/08 00:17:11;;;;;;;;;20.00;20.00;;;;;-147.17;100.00;-15917.19;5099169;27;51019;-49
2023/03/08 00:19:37;;;;;;;;;25.50;21.00;;;;;-147.17;100.00;-15917.19;5099490;27;51523;-51
2023/03/08 00:22:03;;;;;;;;;25.00;24.00;;;;;-147.17;100.00;-15917.19;5101253;27;51736;-49
2023/03/08 00:24:28;;;;;;;;;19.50;19.25;;;;;-147.17;100.00;-15917.19;5099513;27;51163;-49
2023/03/08 00:26:53;;;;;;;;;22.75;17.75;;;;;-147.17;100.00;-15917.19;5098605;27;51128;-51
2023/03/08 00:29:19;;;;;;;;;21.00;19.75;;;;;-147.17;100.00;-15917.19;5098080;27;51484;-50
2023/03/08 00:31:44;;;;;;;;;23.25;19.00;;;;;-147.17;100.00;-15917.19;5098808;27;53240;-48
2023/03/08 00:34:09;;;;;;;;;21.75;21.50;;;;;-147.17;100.00;-15917.19;5098655;27;51151;-49
2023/03/08 00:36:35;;;;;;;;;21.00;19.50;;;;;-147.17;100.00;-15917.19;5101026;27;51109;-48
2023/03/08 00:39:00;;;;;;;;;17.25;17.25;;;;;-147.17;100.00;-15917.19;5097043;27;51118;-50
2023/03/08 00:41:25;;;;;;;;;24.00;20.00;;;;;-147.17;100.00;-15917.19;5099005;27;52005;-51
2023/03/08 00:43:51;;;;;;;;;18.50;18.50;;;;;-147.17;100.00;-15917.19;5097663;27;51402;-49
2023/03/08 00:46:16;;;;;;;;;18.50;15.25;;;;;-147.17;100.00;-15917.19;5096151;27;51271;-52
2023/03/08 00:48:42;;;;;;;;;19.75;17.25;;;;;-147.17;100.00;-15917.19;5098050;27;51120;-49
2023/03/08 00:51:12;;;;;;;;;20.00;19.00;;;;;-147.17;100.00;-15917.19;5098719;27;52058;-49
2023/03/08 00:53:37;;;;;;;;;20.00;16.25;;;;;-147.17;100.00;-15917.19;5095407;27;51354;-51
2023/03/08 00:56:03;;;;;;;;;19.00;15.00;;;;;-147.17;100.00;-15917.19;5097732;27;52048;-51
2023/03/08 00:58:30;;;;;;;;;21.50;18.50;;;;;-147.17;100.00;-15917.19;5082362;27;51525;-50
2023/03/08 01:00:56;;;;;;;;;19.00;18.75;;;;;-147.17;100.00;-15917.19;5101197;27;51903;-51
2023/03/08 01:03:21;;;;;;;;;20.00;19.00;;;;;-147.17;100.00;-15917.19;5105711;27;51144;-50
2023/03/08 01:05:50;;;;;;;;;20.00;18.75;;;;;-147.17;100.00;-15917.19;5107904;27;51031;-49
2023/03/08 01:08:16;;;;;;;;;20.00;18.75;;;;;-147.17;100.00;-15917.19;5096933;27;51310;-50
2023/03/08 01:10:56;;;;;;;;;19.00;17.75;;;;;-147.17;100.00;-15917.19;5099972;27;51150;-50
2023/03/08 01:13:24;;;;;;;;;19.00;16.75;;;;;-147.17;100.00;-15917.19;5100743;27;51121;-51
2023/03/08 01:15:49;;;;;;;;;21.25;20.00;;;;;-147.17;100.00;-15917.19;5100509;27;51350;-50
2023/03/08 01:18:15;;;;;;;;;18.00;17.75;;;;;-147.17;100.00;-15917.19;5098098;27;51942;-50
2023/03/08 01:20:41;;;;;;;;;19.75;18.25;;;;;-147.17;100.00;-15917.19;5098126;27;51946;-49
2023/03/08 01:23:06;;;;;;;;;22.25;18.25;;;;;-147.17;100.00;-15917.19;5099614;27;51196;-48
2023/03/08 01:25:32;;;;;;;;;18.75;18.75;;;;;-147.17;100.00;-15917.19;5100533;27;51108;-49
2023/03/08 01:27:57;;;;;;;;;23.50;21.50;;;;;-147.17;100.00;-15917.19;5098902;27;52413;-49
2023/03/08 01:30:23;;;;;;;;;17.75;16.75;;;;;-147.17;100.00;-15917.19;5096075;27;51990;-50
2023/03/08 01:32:48;;;;;;;;;18.00;16.00;;;;;-147.17;100.00;-15917.19;5094770;27;51196;-51
2023/03/08 01:35:14;;;;;;;;;18.25;18.00;;;;;-147.17;100.00;-15917.19;5098934;27;51089;-49
2023/03/08 01:37:39;;;;;;;;;21.00;19.50;;;;;-147.17;100.00;-15917.19;5096872;27;51427;-49
2023/03/08 01:40:06;;;;;;;;;22.00;18.50;;;;;-147.17;100.00;-15917.19;5100702;27;51138;-52
2023/03/08 01:42:32;;;;;;;;;22.00;18.25;;;;;-147.17;100.00;-15917.19;5094763;27;51200;-49
2023/03/08 01:45:03;;;;;;;;;17.25;17.25;;;;;-147.17;100.00;-15917.19;5096385;27;51454;-51
2023/03/08 01:47:31;;;;;;;;;13.50;13.50;;;;;-147.17;100.00;-15917.19;5083867;27;51641;-49
2023/03/08 01:50:04;;;;;;;;;18.50;16.50;;;;;-147.17;100.00;-15917.19;5114006;27;52222;-50
2023/03/08 01:52:40;;;;;;;;;22.75;19.25;;;;;-147.17;100.00;-15917.19;5109845;27;51308;-51
2023/03/08 01:55:10;;;;;;;;;17.50;16.50;;;;;-147.17;100.00;-15917.19;5108960;27;51101;-50
2023/03/08 01:57:42;;;;;;;;;22.75;18.00;;;;;-147.17;100.00;-15917.19;5110476;27;51411;-49
2023/03/08 02:00:15;;;;;;;;;18.50;15.75;;;;;-147.17;100.00;-15917.19;5106921;27;51354;-52
2023/03/08 02:02:46;;;;;;;;;17.00;13.75;;;;;-147.17;100.00;-15917.19;5108796;27;51123;-50
2023/03/08 02:05:12;;;;;;;;;16.25;16.25;;;;;-147.17;100.00;-15917.19;5110973;27;51203;-51
2023/03/08 02:07:38;;;;;;;;;15.75;14.25;;;;;-147.17;100.00;-15917.19;5110081;27;51230;-49
2023/03/08 02:10:03;;;;;;;;;20.25;18.75;;;;;-147.17;100.00;-15917.19;5107258;27;51247;-49
2023/03/08 02:12:29;;;;;;;;;16.25;16.00;;;;;-147.17;100.00;-15917.19;5112462;27;51226;-51
2023/03/08 02:14:57;;;;;;;;;19.50;16.75;;;;;-147.17;100.00;-15917.19;5113541;27;51094;-50
2023/03/08 02:17:22;;;;;;;;;18.50;17.75;;;;;-147.17;100.00;-15917.19;5112189;27;51264;-51
2023/03/08 02:20:13;;;;;;;;;18.00;17.50;;;;;-147.17;100.00;-15917.19;5111755;27;52959;-49
2023/03/08 02:22:40;;;;;;;;;22.25;18.50;;;;;-147.17;100.00;-15917.19;5112135;27;51143;-50
2023/03/08 02:25:26;;;;;;;;;16.50;15.75;;;;;-147.17;100.00;-15917.19;5108663;27;51067;-50
2023/03/08 02:27:53;;;;;;;;;19.00;17.25;;;;;-147.17;100.00;-15917.19;5110307;27;51132;-51
2023/03/08 02:30:25;;;;;;;;;18.00;17.75;;;;;-147.17;100.00;-15917.19;5109013;27;51989;-50
2023/03/08 02:32:50;;;;;;;;;21.50;18.25;;;;;-147.17;100.00;-15917.19;5108980;27;51062;-49
2023/03/08 02:35:16;;;;;;;;;7.00;6.75;;;;;-147.17;100.00;-15917.19;5112549;27;51205;-51
2023/03/08 02:37:41;;;;;;;;;17.25;15.50;;;;;-147.17;100.00;-15917.19;5093509;27;51308;-49
2023/03/08 02:40:08;;;;;;;;;16.25;16.25;;;;;-147.17;100.00;-15917.19;5106312;27;54119;-51
2023/03/08 02:42:34;;;;;;;;;19.25;18.00;;;;;-147.17;100.00;-15917.19;5109218;27;50972;-51
2023/03/08 02:44:59;;;;;;;;;19.50;17.25;;;;;-147.17;100.00;-15917.19;5101030;27;51025;-49
2023/03/08 02:47:24;;;;;;;;;18.00;17.75;;;;;-147.17;100.00;-15917.19;5108807;27;51103;-51
2023/03/08 02:49:50;;;;;;;;;15.75;14.00;;;;;-147.17;100.00;-15917.19;5093468;27;51860;-50
2023/03/08 02:52:15;;;;;;;;;24.00;21.50;;;;;-147.17;100.00;-15917.19;5113483;27;51248;-50
2023/03/08 02:54:40;;;;;;;;;20.75;17.50;;;;;-147.17;100.00;-15917.19;5109568;27;51168;-50
2023/03/08 02:57:06;;;;;;;;;12.75;12.50;;;;;-147.17;100.00;-15917.19;5105136;27;51441;-50
2023/03/08 02:59:31;;;;;;;;;20.00;17.75;;;;;-147.17;100.00;-15917.19;5110741;27;51127;-50
2023/03/08 03:01:56;;;;;;;;;13.50;13.50;;;;;-147.17;100.00;-15917.19;5109234;27;50846;-50
2023/03/08 03:04:22;;;;;;;;;19.25;16.50;;;;;-147.17;100.00;-15917.19;5113554;27;51168;-50
2023/03/08 03:06:48;;;;;;;;;14.00;13.50;;;;;-147.17;100.00;-15917.19;5113780;27;50915;-51
2023/03/08 03:09:13;;;;;;;;;16.50;14.75;;;;;-147.17;100.00;-15917.19;5110233;27;51727;-49
2023/03/08 03:11:39;;;;;;;;;19.25;17.00;;;;;-147.17;100.00;-15917.19;5109227;27;51718;-50
2023/03/08 03:14:05;;;;;;;;;17.00;15.50;;;;;-147.17;100.00;-15917.19;5109726;27;51042;-51
2023/03/08 03:16:30;;;;;;;;;17.25;13.75;;;;;-147.17;100.00;-15917.19;5110865;27;51272;-51
2023/03/08 03:18:56;;;;;;;;;17.75;16.75;;;;;-147.17;100.00;-15917.19;5112158;27;51953;-51
2023/03/08 03:21:22;;;;;;;;;18.50;18.00;;;;;-147.17;100.00;-15917.19;5110336;27;51206;-48
2023/03/08 03:23:48;;;;;;;;;21.50;18.75;;;;;-147.17;100.00;-15917.19;5105226;27;51103;-50
2023/03/08 03:26:21;;;;;;;;;14.75;14.00;;;;;-147.17;100.00;-15917.19;5110977;27;51133;-52
2023/03/08 03:28:47;;;;;;;;;17.00;16.00;;;;;-147.17;100.00;-15917.19;5102260;27;51204;-48
2023/03/08 03:31:19;;;;;;;;;16.25;14.50;;;;;-147.17;100.00;-15917.19;5077625;27;51781;-51
2023/03/08 03:33:46;;;;;;;;;14.25;13.00;;;;;-147.17;100.00;-15917.19;5106727;27;51141;-49
2023/03/08 03:36:14;;;;;;;;;17.00;15.75;;;;;-147.17;100.00;-15917.19;5113883;27;51172;-53
2023/03/08 03:38:39;;;;;;;;;19.50;18.75;;;;;-147.17;100.00;-15917.19;5115230;27;51970;-52
2023/03/08 03:41:11;;;;;;;;;14.50;13.00;;;;;-147.17;100.00;-15917.19;5114694;27;51082;-51
2023/03/08 03:43:38;;;;;;;;;15.50;13.50;;;;;-147.17;100.00;-15917.19;5115501;27;51134;-51
2023/03/08 03:46:06;;;;;;;;;14.50;12.75;;;;;-147.17;100.00;-15917.19;5108842;27;51064;-50
2023/03/08 03:48:34;;;;;;;;;14.00;14.00;;;;;-147.17;100.00;-15917.19;5096187;27;53359;-51
2023/03/08 03:51:02;;;;;;;;;12.50;12.50;;;;;-147.17;100.00;-15917.19;5108948;27;51168;-50
2023/03/08 03:53:30;;;;;;;;;19.00;16.00;;;;;-147.17;100.00;-15917.19;5113369;27;51278;-51
2023/03/08 03:56:05;;;;;;;;;14.75;13.00;;;;;-147.17;100.00;-15917.19;5112627;27;51099;-50
2023/03/08 03:58:30;;;;;;;;;12.00;12.00;;;;;-147.17;100.00;-15917.19;5110855;27;51843;-49
2023/03/08 04:00:56;;;;;;;;;16.00;13.25;;;;;-147.17;100.00;-15917.19;5108993;27;51294;-50
2023/03/08 04:03:21;;;;;;;;;11.75;11.75;;;;;-147.17;100.00;-15917.19;5088365;27;52798;-51
2023/03/08 04:05:47;;;;;;;;;12.75;11.25;;;;;-147.17;100.00;-15917.19;5109257;27;51336;-48
2023/03/08 04:08:12;;;;;;;;;15.50;13.75;;;;;-147.17;100.00;-15917.19;5109207;27;57918;-51
2023/03/08 04:10:38;;;;;;;;;12.50;11.00;;;;;-147.17;100.00;-15917.19;5112138;27;51194;-52
2023/03/08 04:13:03;;;;;;;;;8.25;8.00;;;;;-147.17;100.00;-15917.19;5109029;27;51317;-52
2023/03/08 04:15:29;;;;;;;;;13.00;12.75;;;;;-147.17;100.00;-15917.19;5110391;27;51171;-52
2023/03/08 04:17:54;;;;;;;;;9.75;8.75;;;;;-147.17;100.00;-15917.19;5113245;27;51218;-52
2023/03/08 04:20:20;;;;;;;;;8.00;8.00;;;;;-147.17;100.00;-15917.19;5112746;27;51189;-49
2023/03/08 04:22:45;;;;;;;;;11.75;11.00;;;;;-147.17;100.00;-15917.19;5110030;27;51280;-50
2023/03/08 04:25:10;;;;;;;;;12.00;11.00;;;;;-147.17;100.00;-15917.19;5113405;27;51073;-51
2023/03/08 04:27:36;;;;;;;;;15.00;12.25;;;;;-147.17;100.00;-15917.19;5109823;27;51160;-49
2023/03/08 04:30:02;;;;;;;;;11.00;9.25;;;;;-147.17;100.00;-15917.19;5114763;27;51262;-49
2023/03/08 04:32:30;;;;;;;;;8.00;7.50;;;;;-147.17;100.00;-15917.19;5098194;27;51137;-49
2023/03/08 04:34:56;;;;;;;;;12.50;10.75;;;;;-147.17;100.00;-15917.19;5114711;27;50890;-51
2023/03/08 04:37:21;;;;;;;;;9.00;9.00;;;;;-147.17;100.00;-15917.19;5107868;27;62355;-52
2023/03/08 04:39:46;;;;;;;;;9.50;8.50;;;;;-147.17;100.00;-15917.19;5114340;27;50937;-50
2023/03/08 04:42:12;;;;;;;;;8.25;8.25;;;;;-147.17;100.00;-15917.19;5100456;27;51605;-50
2023/03/08 04:44:37;;;;;;;;;11.00;11.00;;;;;-147.17;100.00;-15917.19;5111107;27;51288;-51
2023/03/08 04:47:03;;;;;;;;;7.50;7.00;;;;;-147.17;100.00;-15917.19;5109829;27;52093;-49
2023/03/08 04:49:28;;;;;;;;;8.50;8.50;;;;;-147.17;100.00;-15917.19;5095693;27;51261;-49
2023/03/08 04:51:53;;;;;;;;;6.75;6.25;;;;;-147.17;100.00;-15917.19;5110809;27;51211;-50
2023/03/08 04:54:19;;;;;;;;;7.00;6.00;;;;;-147.17;100.00;-15917.19;5108067;27;53583;-50
2023/03/08 04:56:44;;;;;;;;;7.25;7.25;;;;;-147.17;100.00;-15917.19;5107641;27;51713;-51
2023/03/08 04:59:09;;;;;;;;;8.00;7.00;;;;;-147.17;100.00;-15917.19;5095831;27;51228;-52
2023/03/08 05:01:35;;;;;;;;;6.00;5.75;;;;;-147.17;100.00;-15917.19;5106956;27;51510;-52
2023/03/08 05:04:00;;;;;;;;;4.50;4.25;;;;;-147.17;100.00;-15917.19;5114904;27;51430;-50
2023/03/08 05:06:26;;;;;;;;;6.25;6.00;;;;;-147.17;100.00;-15917.19;5104396;27;51257;-50
2023/03/08 05:08:53;;;;;;;;;6.50;6.25;;;;;-147.17;100.00;-15917.19;5105587;27;51157;-54
2023/03/08 05:11:23;;;;;;;;;5.75;5.50;;;;;-147.17;100.00;-15917.19;5106939;27;51201;-51
2023/03/08 05:13:49;;;;;;;;;7.00;6.00;;;;;-147.17;100.00;-15917.19;5108317;27;51078;-51
2023/03/08 05:16:14;;;;;;;;;5.25;3.75;;;;;-147.17;100.00;-15917.19;5105693;27;51589;-50
2023/03/08 05:18:40;;;;;;;;;4.75;4.75;;;;;-147.17;100.00;-15917.19;5107348;27;51163;-49
2023/03/08 05:21:10;;;;;;;;;8.00;7.00;;;;;-147.17;100.00;-15917.19;5108333;27;51144;-51
2023/03/08 05:23:36;;;;;;;;;4.50;4.50;;;;;-147.17;100.00;-15917.19;5114663;27;51181;-51
2023/03/08 05:26:03;;;;;;;;;4.50;3.75;;;;;-147.17;100.00;-15917.19;5109455;27;51075;-50
2023/03/08 05:28:31;;;;;;;;;6.75;6.75;;;;;-147.17;100.00;-15917.19;5111989;27;51097;-52
2023/03/08 05:31:09;;;;;;;;;4.50;4.50;;;;;-147.17;100.00;-15917.19;5107944;27;51000;-52
2023/03/08 05:33:35;;;;;;;;;6.25;6.00;;;;;-147.17;100.00;-15917.19;5114384;27;51075;-52
2023/03/08 05:36:01;;;;;;;;;6.00;4.25;;;;;-147.17;100.00;-15917.19;5106131;27;52480;-51
2023/03/08 05:38:27;;;;;;;;;6.75;6.25;;;;;-147.17;100.00;-15917.19;5113955;27;50913;-51
2023/03/08 05:40:53;;;;;;;;;6.00;4.50;;;;;-147.17;100.00;-15917.19;5107109;27;51324;-51
2023/03/08 05:43:19;;;;;;;;;4.00;3.00;;;;;-147.17;100.00;-15917.19;5109821;27;51391;-50
2023/03/08 05:46:06;;;;;;;;;6.00;6.00;;;;;-147.17;100.00;-15917.19;5110890;27;51267;-52
2023/03/08 05:48:33;;;;;;;;;6.25;6.25;;;;;-147.17;100.00;-15917.19;5094634;27;51150;-51
2023/03/08 05:51:03;;;;;;;;;4.00;4.00;;;;;-147.17;100.00;-15917.19;5088215;27;51322;-52
2023/03/08 05:53:28;;;;;;;;;6.50;5.50;;;;;-147.17;100.00;-15917.19;5109345;27;51264;-50
2023/03/08 05:55:55;;;;;;;;;4.00;4.00;;;;;-147.17;100.00;-15917.19;5108188;27;51794;-52
2023/03/08 05:58:20;;;;;;;;;6.00;6.00;;;;;-147.17;100.00;-15917.19;5105476;27;51122;-50
2023/03/08 06:00:45;;;;;;;;;5.00;5.00;;;;;-147.17;100.00;-15917.19;5105421;27;52518;-50
2023/03/08 06:03:11;;;;;;;;;7.25;5.25;;;;;-147.17;100.00;-15917.19;5092930;27;51325;-52
2023/03/08 06:05:37;;;;;;;;;7.50;4.00;;;;;-147.17;100.00;-15917.19;5110445;27;52286;-52
2023/03/08 06:08:02;;;;;;;;;6.00;6.00;;;;;-147.17;100.00;-15917.19;5097845;27;51150;-52
2023/03/08 06:10:28;;;;;;;;;7.00;6.25;;;;;-147.17;100.00;-15917.19;5090214;27;51066;-50
2023/03/08 06:12:53;;;;;;;;;5.75;4.50;;;;;-147.17;100.00;-15917.19;5096751;27;51011;-50
2023/03/08 06:15:19;;;;;;;;;4.00;4.00;;;;;-147.17;100.00;-15917.19;5109227;27;54058;-54
2023/03/08 06:17:44;;;;;;;;;6.50;6.00;;;;;-147.17;100.00;-15917.19;5095045;27;51090;-50
2023/03/08 06:20:10;;;;;;;;;8.00;6.00;;;;;-147.17;100.00;-15917.19;5111215;27;50948;-50
2023/03/08 06:22:35;;;;;;;;;6.50;6.00;;;;;-147.17;100.00;-15917.19;5075952;27;51193;-51
2023/03/08 06:25:01;;;;;;;;;4.50;4.00;;;;;-147.17;100.00;-15917.19;5106717;27;51712;-50
2023/03/08 06:27:27;;;;;;;;;3.50;3.00;;;;;-147.17;100.00;-15917.19;5087305;27;51581;-51
2023/03/08 06:29:52;;;;;;;;;4.00;4.00;;;;;-147.17;100.00;-15917.19;5111691;27;51351;-51
2023/03/08 06:32:18;;;;;;;;;7.00;6.25;;;;;-147.17;100.00;-15917.19;5103691;27;51596;-49
2023/03/08 06:34:43;;;;;;;;;4.00;4.00;;;;;-147.17;100.00;-15917.19;5112656;27;51395;-50
2023/03/08 06:37:09;;;;;;;;;5.00;5.00;;;;;-147.17;100.00;-15917.19;5104248;27;51321;-49
2023/03/08 06:39:34;;;;;;;;;7.00;7.00;;;;;-147.17;100.00;-15917.19;5077686;27;51156;-50
2023/03/08 06:42:01;;;;;;;;;7.50;6.00;;;;;-147.17;100.00;-15917.19;5100783;27;51284;-51
2023/03/08 06:44:28;;;;;;;;;6.00;6.00;;;;;-147.17;100.00;-15917.19;5092079;27;52435;-52
2023/03/08 06:46:53;;;;;;;;;8.25;6.25;;;;;-147.17;100.00;-15917.19;5101530;27;50995;-50
2023/03/08 06:49:19;;;;;;;;;3.75;2.00;;;;;-147.17;100.00;-15917.19;5108372;27;50991;-49
2023/03/08 06:51:44;;;;;;;;;8.00;7.75;;;;;-147.17;100.00;-15917.19;5110729;27;50908;-50
2023/03/08 06:54:10;;;;;;;;;1.25;1.25;;;;;-147.17;100.00;-15917.19;5108738;27;52269;-50
2023/03/08 06:56:35;;;;;;;;;6.25;4.00;;;;;-147.17;100.00;-15917.19;5095518;27;50993;-52
2023/03/08 06:59:00;;;;;;;;;4.00;3.00;;;;;-147.17;100.00;-15917.19;5109702;27;51586;-51
2023/03/08 07:01:26;;;;;;;;;4.00;3.75;;;;;-147.17;100.00;-15917.19;5087654;27;51109;-50
2023/03/08 07:03:52;;;;;;;;;6.00;5.00;;;;;-147.17;100.00;-15917.19;5102559;27;52406;-52
2023/03/08 07:06:17;;;;;;;;;4.00;4.00;;;;;-147.17;100.00;-15917.19;5102928;27;51066;-51
2023/03/08 07:08:42;;;;;;;;;2.25;2.25;;;;;-147.17;100.00;-15917.19;5102702;27;51136;-49
2023/03/08 07:11:08;;;;;;;;;3.75;3.50;;;;;-147.17;100.00;-15917.19;5089920;27;51344;-52
2023/03/08 07:13:35;;;;;;;;;2.00;2.00;;;;;-147.17;100.00;-15917.19;5111023;27;51236;-49
2023/03/08 07:16:06;;;;;;;;;2.00;2.00;;;;;-147.17;100.00;-15917.19;5105654;27;51165;-52
2023/03/08 07:18:31;;;;;;;;;1.50;1.50;;;;;-147.17;100.00;-15917.19;5076831;27;51291;-50
2023/03/08 07:20:57;;;;;;;;;4.75;3.75;;;;;-147.17;100.00;-15917.19;5106957;27;51202;-49
2023/03/08 07:23:23;;;;;;;;;3.25;3.25;;;;;-147.17;100.00;-15917.19;5104269;27;52991;-51
2023/03/08 07:25:48;;;;;;;;;0.25;0.25;;;;;-147.17;100.00;-15917.19;5105859;27;51231;-49
2023/03/08 07:28:14;;;;;;;;;4.00;3.00;;;;;-147.17;100.00;-15917.19;5106503;27;51110;-51
2023/03/08 07:30:39;;;;;;;;;2.00;2.00;;;;;-147.17;100.00;-15917.19;5101849;27;51078;-52
2023/03/08 07:33:05;;;;;;;;;1.00;1.00;;;;;-147.17;100.00;-15917.19;5103491;27;52248;-51
2023/03/08 07:35:30;;;;;;;;;3.00;2.00;;;;;-147.17;100.00;-15917.19;5108604;27;51216;-52
2023/03/08 07:37:55;;;;;;;;;4.00;3.00;;;;;-147.17;100.00;-15917.19;5099148;27;51210;-51
2023/03/08 07:40:21;;;;;;;;;5.75;4.00;;;;;-147.17;100.00;-15917.19;5100105;27;51440;-55
2023/03/08 07:42:47;;;;;;;;;3.00;3.00;;;;;-147.17;100.00;-15917.19;5097607;27;51134;-51
2023/03/08 07:45:13;;;;;;;;;4.00;4.00;;;;;-147.17;100.00;-15917.19;5094582;27;51251;-51
2023/03/08 07:47:39;;;;;;;;;3.00;3.00;;;;;-147.17;100.00;-15917.19;5096053;27;51329;-50
2023/03/08 07:50:05;;;;;;;;;3.00;3.00;;;;;-147.17;100.00;-15917.19;5112230;27;51043;-52
2023/03/08 07:52:30;;;;;;;;;4.00;4.00;;;;;-147.17;100.00;-15917.19;5091656;27;52022;-51
2023/03/08 07:54:56;;;;;;;;;1.75;1.00;;;;;-147.17;100.00;-15917.19;5108878;27;51356;-52
2023/03/08 07:57:22;;;;;;;;;7.00;7.00;;;;;-147.17;100.00;-15917.19;5084134;27;51590;-53
2023/03/08 07:59:49;;;;;;;;;1.00;1.00;;;;;-147.17;100.00;-15917.19;5111673;27;51071;-51
2023/03/08 08:02:14;;;;;;;;;4.25;4.00;;;;;-147.17;100.00;-15917.19;5112406;27;53450;-51
2023/03/08 08:04:40;;;;;;;;;1.75;1.75;;;;;-147.17;100.00;-15917.19;5110261;27;51119;-51
2023/03/08 08:07:09;;;;;;;;;2.00;1.50;;;;;-147.17;100.00;-15917.19;5102509;27;51335;-51
2023/03/08 08:09:36;;;;;;;;;4.75;4.00;;;;;-147.17;100.00;-15917.19;5101181;27;51308;-50
2023/03/08 08:12:02;;;;;;;;;2.00;2.00;;;;;-147.17;100.00;-15917.19;5106536;27;51110;-51
2023/03/08 08:14:27;;;;;;;;;1.25;1.25;;;;;-147.17;100.00;-15917.19;5104236;27;51196;-52
2023/03/08 08:16:53;;;;;;;;;3.00;3.00;;;;;-147.17;100.00;-15917.19;5105334;27;51168;-52
2023/03/08 08:19:18;;;;;;;;;2.00;2.00;;;;;-147.17;100.00;-15917.19;5102483;27;51333;-51
2023/03/08 08:21:44;;;;;;;;;1.00;1.00;;;;;-147.17;100.00;-15917.19;5108371;27;51807;-52
2023/03/08 08:24:10;;;;;;;;;2.00;2.00;;;;;-147.17;100.00;-15917.19;5111583;27;52617;-52
2023/03/08 08:26:35;;;;;;;;;4.00;4.00;;;;;-147.17;100.00;-15917.19;5101854;27;51057;-52
2023/03/08 08:29:00;;;;;;;;;2.00;2.00;;;;;-147.17;100.00;-15917.19;5108434;27;51228;-53
2023/03/08 08:31:31;;;;;;;;;1.25;1.25;;;;;-147.17;100.00;-15917.19;5103300;27;51223;-53
2023/03/08 08:33:58;;;;;;;;;2.00;2.00;;;;;-147.17;100.00;-15917.19;5109238;27;51122;-51
2023/03/08 08:36:24;;;;;;;;;2.00;2.00;;;;;-147.17;100.00;-15917.19;5111810;27;51184;-52
2023/03/08 08:38:49;;;;;;;;;2.00;2.00;;;;;-147.17;100.00;-15917.19;5106952;27;51508;-51
2023/03/08 08:41:17;;;;;;;;;2.00;2.00;;;;;-147.17;100.00;-15917.19;5102479;27;51239;-51
2023/03/08 08:43:44;;;;;;;;;2.33;1.00;;;;;-147.17;100.00;-15917.19;5112238;27;51051;-52
2023/03/08 08:46:11;;;;;;;;;5.25;4.25;;;;;-147.17;100.00;-15917.19;5111831;27;51174;-52
2023/03/08 08:48:37;;;;;;;;;3.00;1.25;;;;;-147.17;100.00;-15917.19;5108321;27;51241;-51
2023/03/08 08:51:04;;;;;;;;;4.25;3.75;;;;;-147.17;100.00;-15917.19;5111816;27;52072;-50
2023/03/08 08:53:30;;;;;;;;;5.00;4.00;;;;;-147.17;100.00;-15917.19;5115003;27;51342;-49
2023/03/08 08:55:55;;;;;;;;;2.67;2.00;;;;;-147.17;100.00;-15917.19;5108526;27;51526;-49
2023/03/08 08:58:21;;;;;;;;;5.75;4.75;;;;;-147.17;100.00;-15917.19;5115616;27;51032;-50
2023/03/08 09:00:46;;;;;;;;;3.00;2.00;;;;;-147.17;100.00;-15917.19;5114928;27;51628;-49
2023/03/08 09:03:12;;;;;;;;;2.00;2.00;;;;;-147.17;100.00;-15917.19;5114973;27;51116;-51
2023/03/08 09:05:40;;;;;;;;;2.00;2.00;;;;;-147.17;100.00;-15917.19;5112785;27;51229;-52
2023/03/08 09:08:06;;;;;;;;;2.00;2.00;;;;;-147.17;100.00;-15917.19;5115329;27;51243;-50
2023/03/08 09:10:35;;;;;;;;;2.25;0.75;;;;;-147.17;100.00;-15917.19;5114170;27;51991;-53
2023/03/08 09:13:01;;;;;;;;;2.00;1.00;;;;;-147.17;100.00;-15917.19;5092373;27;51180;-53
2023/03/08 09:15:27;;;;;;;;;2.00;2.00;;;;;-147.17;100.00;-15917.19;5107402;27;51027;-53
2023/03/08 09:17:53;;;;;;;;;1.00;1.00;;;;;-147.17;100.00;-15917.19;5105170;27;51255;-51
2023/03/08 09:20:19;;;;;;;;;2.00;2.00;;;;;-147.17;100.00;-15917.19;5102086;27;51304;-53
2023/03/08 09:22:44;;;;;;;;;3.25;2.00;;;;;-147.17;100.00;-15917.19;5105621;27;51157;-52
2023/03/08 09:25:11;;;;;;;;;3.00;3.00;;;;;-147.17;100.00;-15917.19;5105175;27;51128;-53
2023/03/08 09:27:38;;;;;;;;;3.00;2.75;;;;;-147.17;100.00;-15917.19;5106272;27;50984;-50
2023/03/08 09:30:05;;;;;;;;;1.00;1.00;;;;;-147.17;100.00;-15917.19;5104316;27;51309;-51
2023/03/08 09:32:34;;;;;;;;;2.67;2.00;;;;;-147.17;100.00;-15917.19;5108754;27;51171;-52
2023/03/08 09:35:01;;;;;;;;;1.00;1.00;;;;;-147.17;100.00;-15917.19;5099664;27;51030;-51
2023/03/08 09:37:26;;;;;;;;;3.00;1.33;;;;;-147.17;100.00;-15917.19;5114992;27;51100;-51
2023/03/08 09:39:52;;;;;;;;;2.00;2.00;;;;;-147.17;100.00;-15917.19;5114019;27;51465;-51
2023/03/08 09:42:26;;;;;;;;;2.00;1.00;;;;;-147.17;100.00;-15917.19;5115131;27;51127;-52
2023/03/08 09:45:16;;;;;;;;;2.00;2.00;;;;;-147.17;100.00;-15917.19;5114043;27;51102;-51
2023/03/08 09:48:07;;;;;;;;;1.00;1.00;;;;;-147.17;100.00;-15917.19;5112517;27;51301;-51
2023/03/08 09:50:41;;;;;;;;;1.00;1.00;;;;;-147.17;100.00;-15917.19;5090714;27;51776;-51
2023/03/08 09:53:27;;;;;;;;;2.00;2.00;;;;;-147.17;100.00;-15917.19;5113543;27;51027;-51
2023/03/08 09:56:03;;;;;;;;;2.33;1.00;;;;;-147.17;100.00;-15917.19;5105434;27;51115;-52
2023/03/08 09:59:01;;;;;;;;;3.00;2.00;;;;;-147.17;100.00;-15917.19;5101140;27;51573;-52
2023/03/08 10:01:41;;;;;;;;;5.00;4.00;;;;;-147.17;100.00;-15917.19;5100933;27;52051;-51
2023/03/08 10:04:12;;;;;;;;;2.67;2.00;;;;;-147.17;100.00;-15917.19;5097139;27;51569;-50
2023/03/08 10:06:47;;;;;;;;;2.00;2.00;;;;;-147.17;100.00;-15917.19;5102167;27;51141;-51
2023/03/08 10:09:15;;;;;;;;;3.00;3.00;;;;;-147.17;100.00;-15917.19;5103628;27;51420;-53
2023/03/08 10:11:49;;;;;;;;;3.00;2.00;;;;;-147.17;100.00;-15917.19;5107405;27;52359;-54
2023/03/08 10:14:20;;;;;;;;;2.00;2.00;;;;;-147.17;100.00;-15917.19;5111538;27;50953;-50
2023/03/08 10:16:57;;;;;;;;;2.33;2.33;;;;;-147.17;100.00;-15917.19;5113896;27;51030;-50
2023/03/08 10:19:37;;;;;;;;;1.67;1.67;;;;;-147.17;100.00;-15917.19;5112217;27;51079;-51
2023/03/08 10:22:13;;;;;;;;;3.00;2.00;;;;;-147.17;100.00;-15917.19;5087426;27;53123;-53
2023/03/08 10:24:52;;;;;;;;;2.67;2.67;;;;;-147.17;100.00;-15917.19;5113873;27;51203;-53
2023/03/08 10:27:24;;;;;;;;;5.00;4.00;;;;;-147.17;100.00;-15917.19;5110741;27;51168;-52
2023/03/08 10:29:58;;;;;;;;;3.00;3.00;;;;;-147.17;100.00;-15917.19;5081988;27;51224;-52
2023/03/08 10:32:24;;;;;;;;;7.25;6.00;;;;;-147.17;100.00;-15917.19;5112993;27;51974;-52
2023/03/08 10:34:50;;;;;;;;;1.00;1.00;;;;;-147.17;100.00;-15917.19;5111398;27;51058;-51
2023/03/08 10:37:16;;;;;;;;;3.00;3.00;;;;;-147.17;100.00;-15917.19;5109150;27;51110;-50
2023/03/08 10:39:53;;;;;;;;;2.00;2.00;;;;;-147.17;100.00;-15917.19;5104837;27;51340;-50
2023/03/08 10:42:22;;;;;;;;;3.00;2.67;;;;;-147.17;100.00;-15917.19;5113410;27;51042;-50
2023/03/08 10:45:12;;;;;;;;;4.00;3.67;;;;;-147.17;100.00;-15917.19;5113903;27;51156;-55
2023/03/08 10:47:37;;;;;;;;;3.00;2.33;;;;;-147.17;100.00;-15917.19;5113590;27;51212;-52
2023/03/08 10:50:12;;;;;;;;;2.00;2.00;;;;;-147.17;100.00;-15917.19;5108947;27;50995;-51
2023/03/08 10:52:38;;;;;;;;;3.00;3.00;;;;;-147.17;100.00;-15917.19;5112278;27;51766;-53
2023/03/08 10:55:16;;;;;;;;;2.00;2.00;;;;;-147.17;100.00;-15917.19;5112306;27;51082;-53